Time;durP1;ratioP1;P1;durP2;ratioP2;P2;SDS_P1;SDS_P2;PMS_P1;PMS_P2;Temp;Humidity;BMP_temperature;BMP_pressure;BME280_temperature;BME280_humidity;BME280_pressure;Samples;Min_cycle;Max_cycle;Signal;HPM_P1;HPM_P2
2022/07/31 00:00:30;;;;;;;6.93;3.03;;;20.30;74.80;;;;;;5060644;28;20040;-75
2022/07/31 00:02:56;;;;;;;6.45;2.95;;;20.30;74.50;;;;;;5061042;28;20037;-75
2022/07/31 00:05:23;;;;;;;6.07;3.20;;;20.30;74.70;;;;;;5065919;28;20052;-77
2022/07/31 00:07:49;;;;;;;8.00;3.40;;;20.30;74.70;;;;;;5059869;28;20051;-76
2022/07/31 00:10:15;;;;;;;7.07;3.65;;;20.20;75.00;;;;;;5058719;28;20055;-75
2022/07/31 00:12:40;;;;;;;8.95;3.67;;;20.20;75.10;;;;;;5061886;28;20035;-77
2022/07/31 00:15:08;;;;;;;8.98;3.78;;;20.10;75.30;;;;;;5060646;28;20470;-76
2022/07/31 00:17:36;;;;;;;7.13;3.60;;;20.10;75.70;;;;;;5061144;28;20058;-79
2022/07/31 00:20:02;;;;;;;8.25;3.67;;;20.10;75.90;;;;;;5061285;28;20040;-77
2022/07/31 00:22:28;;;;;;;6.15;3.53;;;20.00;76.00;;;;;;5059611;28;20499;-75
2022/07/31 00:24:54;;;;;;;6.60;3.58;;;19.90;76.20;;;;;;5061766;28;20040;-76
2022/07/31 00:27:20;;;;;;;8.00;3.60;;;19.90;76.60;;;;;;5062277;28;20033;-76
2022/07/31 00:29:46;;;;;;;8.05;3.15;;;19.90;76.50;;;;;;5060918;28;20446;-76
2022/07/31 00:32:12;;;;;;;7.85;3.58;;;19.90;76.50;;;;;;5062470;28;20507;-76
2022/07/31 00:34:37;;;;;;;8.63;3.33;;;19.90;76.70;;;;;;5063502;28;20051;-77
2022/07/31 00:37:03;;;;;;;8.32;3.22;;;19.80;77.00;;;;;;5062894;28;20487;-77
2022/07/31 00:39:29;;;;;;;6.38;3.63;;;19.80;76.90;;;;;;5064251;28;20119;-75
2022/07/31 00:41:55;;;;;;;9.13;3.58;;;19.80;77.10;;;;;;5064168;28;20166;-76
2022/07/31 00:44:21;;;;;;;7.57;3.47;;;19.80;77.40;;;;;;5065655;28;20581;-75
2022/07/31 00:46:47;;;;;;;7.68;3.78;;;19.80;77.60;;;;;;5065863;28;20032;-76
2022/07/31 00:49:12;;;;;;;10.77;4.13;;;19.70;77.50;;;;;;5065567;28;20053;-76
2022/07/31 00:51:39;;;;;;;7.25;3.45;;;19.70;77.70;;;;;;5062408;28;20040;-75
2022/07/31 00:54:07;;;;;;;7.25;3.75;;;19.80;77.90;;;;;;5065737;28;20040;-75
2022/07/31 00:56:33;;;;;;;9.30;4.03;;;19.70;78.00;;;;;;5064132;28;20086;-76
2022/07/31 00:58:59;;;;;;;6.93;3.67;;;19.70;78.10;;;;;;5061999;28;20028;-76
2022/07/31 01:01:26;;;;;;;10.00;4.68;;;19.70;78.20;;;;;;5059652;28;20051;-76
2022/07/31 01:03:52;;;;;;;8.23;4.22;;;19.60;78.70;;;;;;5061438;28;20040;-76
2022/07/31 01:06:18;;;;;;;8.20;3.72;;;19.60;78.90;;;;;;5063121;28;20041;-75
2022/07/31 01:08:44;;;;;;;8.50;4.50;;;19.60;79.00;;;;;;5062973;28;20105;-75
2022/07/31 01:11:29;;;;;;;7.45;4.43;;;19.50;79.40;;;;;;5067043;28;20438;-76
2022/07/31 01:13:58;;;;;;;8.40;4.70;;;19.60;79.50;;;;;;5059520;28;20044;-77
2022/07/31 01:16:29;;;;;;;8.45;4.18;;;19.60;79.50;;;;;;5062111;28;20040;-76
2022/07/31 01:18:57;;;;;;;7.15;4.28;;;19.50;79.80;;;;;;5061717;28;20438;-77
2022/07/31 01:21:34;;;;;;;9.02;4.68;;;19.50;79.80;;;;;;5062068;28;20037;-76
2022/07/31 01:24:28;;;;;;;8.35;4.07;;;19.60;79.80;;;;;;5064899;28;20064;-75
2022/07/31 01:27:00;;;;;;;9.32;4.63;;;19.60;79.80;;;;;;5061299;28;20534;-75
2022/07/31 01:29:36;;;;;;;7.93;4.40;;;19.60;79.70;;;;;;5064286;28;20048;-75
2022/07/31 01:32:24;;;;;;;7.65;4.10;;;19.60;80.00;;;;;;5062496;28;20037;-76
2022/07/31 01:35:01;;;;;;;8.23;4.30;;;19.60;79.80;;;;;;5063090;28;20040;-78
2022/07/31 01:37:31;;;;;;;8.75;4.57;;;19.50;80.10;;;;;;5063006;28;20475;-75
2022/07/31 01:40:03;;;;;;;8.75;4.88;;;19.50;80.50;;;;;;5061700;28;20040;-75
2022/07/31 01:42:30;;;;;;;7.25;3.92;;;19.60;80.10;;;;;;5058306;28;20044;-76
2022/07/31 01:45:00;;;;;;;6.97;4.18;;;19.60;80.10;;;;;;5065165;28;20059;-76
2022/07/31 01:47:28;;;;;;;8.57;3.92;;;19.60;80.20;;;;;;5063487;28;20040;-76
2022/07/31 01:49:57;;;;;;;10.60;4.28;;;19.60;80.30;;;;;;5064538;28;20044;-76
2022/07/31 01:52:25;;;;;;;7.30;3.95;;;19.60;80.20;;;;;;5061372;28;20056;-75
2022/07/31 01:54:53;;;;;;;7.57;4.30;;;19.60;80.10;;;;;;5064940;28;20043;-76
2022/07/31 01:57:22;;;;;;;10.80;4.30;;;19.60;80.00;;;;;;5063837;28;20583;-75
2022/07/31 01:59:48;;;;;;;7.55;4.05;;;19.60;80.00;;;;;;5064359;28;20049;-78
2022/07/31 02:02:16;;;;;;;7.43;4.00;;;19.60;80.00;;;;;;5061283;28;20040;-76
2022/07/31 02:04:45;;;;;;;8.85;3.95;;;19.60;79.70;;;;;;5065611;28;20123;-76
2022/07/31 02:07:12;;;;;;;10.18;4.40;;;19.60;80.10;;;;;;5063853;28;20063;-76
2022/07/31 02:09:38;;;;;;;8.40;3.70;;;19.50;80.40;;;;;;5061621;28;20062;-79
2022/07/31 02:12:04;;;;;;;12.02;4.50;;;19.50;80.50;;;;;;5064094;28;20090;-76
2022/07/31 02:14:30;;;;;;;8.93;3.50;;;19.50;80.60;;;;;;5061379;28;20101;-77
2022/07/31 02:16:58;;;;;;;8.20;3.47;;;19.60;80.60;;;;;;5067095;28;20028;-75
2022/07/31 02:19:25;;;;;;;8.55;3.90;;;19.60;80.40;;;;;;5063539;28;20044;-76
2022/07/31 02:21:51;;;;;;;8.43;3.72;;;19.50;80.70;;;;;;5068114;28;20036;-75
2022/07/31 02:24:17;;;;;;;7.30;3.72;;;19.60;80.70;;;;;;5062465;28;20035;-77
2022/07/31 02:26:44;;;;;;;6.45;3.47;;;19.60;80.70;;;;;;5062334;28;20097;-76
2022/07/31 02:29:13;;;;;;;10.38;4.07;;;19.60;80.60;;;;;;5060504;28;20047;-76
2022/07/31 02:31:43;;;;;;;6.40;3.67;;;19.60;80.40;;;;;;5063614;28;20044;-76
2022/07/31 02:34:11;;;;;;;8.60;4.00;;;19.60;80.40;;;;;;5063450;28;20426;-76
2022/07/31 02:36:37;;;;;;;6.85;3.80;;;19.60;80.30;;;;;;5066014;28;20076;-77
2022/07/31 02:39:04;;;;;;;8.50;4.28;;;19.60;80.60;;;;;;5064838;28;20032;-76
2022/07/31 02:41:30;;;;;;;8.63;3.60;;;19.60;80.80;;;;;;5063727;28;20045;-76
2022/07/31 02:43:57;;;;;;;7.28;3.90;;;19.60;80.80;;;;;;5069034;28;20488;-77
2022/07/31 02:46:23;;;;;;;7.20;3.30;;;19.50;81.00;;;;;;5061972;28;21104;-79
2022/07/31 02:48:50;;;;;;;6.90;3.58;;;19.50;81.10;;;;;;5069414;28;20510;-76
2022/07/31 02:51:16;;;;;;;5.95;3.65;;;19.50;81.30;;;;;;5062311;28;20044;-76
2022/07/31 02:53:42;;;;;;;7.97;4.05;;;19.50;81.30;;;;;;5060930;28;20036;-76
2022/07/31 02:56:08;;;;;;;7.38;3.80;;;19.50;81.30;;;;;;5057445;28;20041;-77
2022/07/31 02:58:37;;;;;;;8.90;3.88;;;19.50;81.40;;;;;;5061570;28;20067;-76
2022/07/31 03:01:05;;;;;;;10.90;4.18;;;19.60;81.70;;;;;;5061736;28;20032;-76
2022/07/31 03:03:31;;;;;;;7.82;4.07;;;19.50;82.00;;;;;;5062380;28;20123;-77
2022/07/31 03:05:57;;;;;;;9.20;4.63;;;19.50;82.00;;;;;;5063333;28;20039;-76
2022/07/31 03:08:22;;;;;;;10.80;4.57;;;19.50;82.30;;;;;;5058660;28;20040;-76
2022/07/31 03:10:48;;;;;;;7.75;4.78;;;19.50;82.80;;;;;;5058738;28;20147;-76
2022/07/31 03:13:15;;;;;;;8.95;4.55;;;19.50;83.10;;;;;;5060838;28;20059;-76
2022/07/31 03:15:42;;;;;;;10.20;5.20;;;19.50;83.10;;;;;;5061910;28;20045;-76
2022/07/31 03:18:13;;;;;;;7.63;4.50;;;19.40;83.30;;;;;;5060578;28;20062;-76
2022/07/31 03:20:41;;;;;;;8.93;5.00;;;19.30;83.10;;;;;;5060747;28;20040;-76
2022/07/31 03:23:10;;;;;;;8.23;5.18;;;19.30;83.00;;;;;;5063215;28;20495;-79
2022/07/31 03:25:36;;;;;;;10.25;4.95;;;19.30;82.90;;;;;;5059961;28;20036;-79
2022/07/31 03:28:01;;;;;;;9.32;4.82;;;19.30;83.20;;;;;;5061798;28;20032;-76
2022/07/31 03:30:27;;;;;;;10.13;5.00;;;19.20;83.10;;;;;;5061217;28;20068;-76
2022/07/31 03:32:54;;;;;;;9.55;4.88;;;19.20;83.10;;;;;;5065805;28;20039;-76
2022/07/31 03:35:21;;;;;;;9.75;5.78;;;19.20;83.20;;;;;;5064282;28;20041;-77
2022/07/31 03:37:47;;;;;;;9.52;5.30;;;19.20;83.10;;;;;;5057612;28;20052;-77
2022/07/31 03:40:13;;;;;;;12.10;6.05;;;19.20;83.20;;;;;;5067980;28;20169;-76
2022/07/31 03:42:39;;;;;;;9.77;5.65;;;19.20;83.10;;;;;;5063361;28;20120;-75
2022/07/31 03:45:08;;;;;;;9.27;5.75;;;19.20;83.10;;;;;;5061508;28;20054;-76
2022/07/31 03:47:33;;;;;;;10.05;5.43;;;19.10;83.10;;;;;;5063428;28;20139;-76
2022/07/31 03:50:00;;;;;;;10.68;6.32;;;19.20;83.10;;;;;;5066890;28;20514;-76
2022/07/31 03:52:27;;;;;;;12.57;6.38;;;19.20;83.00;;;;;;5064281;28;20037;-77
2022/07/31 03:54:54;;;;;;;10.57;6.10;;;19.10;83.20;;;;;;5061664;28;20070;-77
2022/07/31 03:57:20;;;;;;;10.00;6.65;;;19.10;83.10;;;;;;5063628;28;20044;-77
2022/07/31 03:59:49;;;;;;;11.15;6.38;;;19.10;83.20;;;;;;5057465;28;20041;-76
2022/07/31 04:02:15;;;;;;;15.52;7.25;;;19.10;83.30;;;;;;5067069;28;20072;-76
2022/07/31 04:04:42;;;;;;;11.45;6.60;;;19.10;83.20;;;;;;5066499;28;20075;-76
2022/07/31 04:07:08;;;;;;;10.63;6.28;;;19.10;83.40;;;;;;5063923;28;20044;-79
2022/07/31 04:09:34;;;;;;;10.60;6.72;;;19.00;83.40;;;;;;5062751;28;20099;-75
2022/07/31 04:12:00;;;;;;;13.20;7.47;;;19.10;83.70;;;;;;5062542;28;20048;-76
2022/07/31 04:14:25;;;;;;;12.82;7.72;;;19.10;83.40;;;;;;5064336;28;20043;-75
2022/07/31 04:16:51;;;;;;;11.05;6.57;;;19.10;83.50;;;;;;5065566;28;20040;-76
2022/07/31 04:19:16;;;;;;;13.88;7.28;;;19.10;83.50;;;;;;5065530;28;20130;-78
2022/07/31 04:21:42;;;;;;;11.50;7.25;;;19.10;83.40;;;;;;5068343;28;20527;-76
2022/07/31 04:24:10;;;;;;;11.95;6.95;;;19.10;83.40;;;;;;5065196;28;20041;-76
2022/07/31 04:26:36;;;;;;;15.63;7.28;;;19.10;83.30;;;;;;5057675;28;20024;-75
2022/07/31 04:29:01;;;;;;;10.15;6.85;;;19.10;83.40;;;;;;5064952;28;20047;-76
2022/07/31 04:31:27;;;;;;;13.73;7.75;;;19.10;83.40;;;;;;5064050;28;20044;-78
2022/07/31 04:33:53;;;;;;;10.45;7.53;;;19.10;83.40;;;;;;5061480;28;20040;-75
2022/07/31 04:36:18;;;;;;;14.25;8.30;;;19.10;83.40;;;;;;5068047;28;20032;-79
2022/07/31 04:38:44;;;;;;;13.88;8.43;;;19.10;83.50;;;;;;5063161;28;20041;-76
2022/07/31 04:41:10;;;;;;;14.38;8.00;;;19.10;83.40;;;;;;5064944;28;20067;-77
2022/07/31 04:43:35;;;;;;;14.20;8.30;;;19.10;83.60;;;;;;5068114;28;20092;-75
2022/07/31 04:46:01;;;;;;;14.55;7.45;;;19.10;83.60;;;;;;5064905;28;20459;-76
2022/07/31 04:48:26;;;;;;;15.88;8.98;;;19.10;83.50;;;;;;5063905;28;20057;-79
2022/07/31 04:50:52;;;;;;;14.98;8.10;;;19.10;83.30;;;;;;5066098;28;21280;-76
2022/07/31 04:53:18;;;;;;;13.80;8.48;;;19.10;83.40;;;;;;5063867;28;20488;-75
2022/07/31 04:56:32;;;;;;;15.63;9.13;;;19.10;83.50;;;;;;5064319;28;20048;-76
2022/07/31 04:58:29;;;;;;;12.73;8.85;;;19.20;83.40;;;;;;5060731;28;20484;-76
2022/07/31 05:00:55;;;;;;;15.68;8.35;;;19.20;83.40;;;;;;5064195;28;20032;-76
2022/07/31 05:03:20;;;;;;;16.35;9.65;;;19.30;83.30;;;;;;5063297;28;20040;-75
2022/07/31 05:05:46;;;;;;;15.02;9.20;;;19.30;83.20;;;;;;5065793;28;20139;-75
2022/07/31 05:08:11;;;;;;;13.32;9.40;;;19.40;82.90;;;;;;5063770;28;20533;-76
2022/07/31 05:13:26;;;;;;;14.85;9.18;;;19.50;82.50;;;;;;5052801;28;20460;-76
2022/07/31 05:15:52;;;;;;;11.50;8.52;;;19.50;82.50;;;;;;5064575;28;20134;-75
2022/07/31 05:18:17;;;;;;;15.52;8.95;;;19.60;82.50;;;;;;5061657;28;20583;-76
2022/07/31 05:20:43;;;;;;;14.93;9.25;;;19.60;82.20;;;;;;5063418;28;20048;-76
2022/07/31 05:23:09;;;;;;;14.15;9.18;;;19.60;82.10;;;;;;5064040;28;20067;-75
2022/07/31 05:25:34;;;;;;;14.45;9.02;;;19.60;82.10;;;;;;5065938;28;20028;-77
2022/07/31 05:28:00;;;;;;;17.30;9.20;;;19.70;81.80;;;;;;5066935;28;20033;-76
2022/07/31 05:30:26;;;;;;;13.60;8.65;;;19.80;81.50;;;;;;5062386;28;20071;-76
2022/07/31 05:32:51;;;;;;;13.23;8.05;;;20.00;81.20;;;;;;5066016;28;20039;-76
2022/07/31 05:35:17;;;;;;;15.48;8.73;;;20.00;80.70;;;;;;5065445;28;20041;-75
2022/07/31 05:37:43;;;;;;;15.15;8.85;;;20.10;80.30;;;;;;5065743;28;20226;-75
2022/07/31 05:40:09;;;;;;;14.65;8.63;;;20.00;80.70;;;;;;5064296;28;20041;-77
2022/07/31 05:42:34;;;;;;;13.65;9.38;;;19.90;80.90;;;;;;5063442;28;20037;-75
2022/07/31 05:45:00;;;;;;;12.60;9.05;;;19.90;81.20;;;;;;5073062;28;20491;-75
2022/07/31 05:47:26;;;;;;;15.32;8.73;;;19.80;81.00;;;;;;5064131;28;20119;-76
2022/07/31 05:49:51;;;;;;;14.70;8.73;;;19.90;81.10;;;;;;5063230;28;20040;-76
2022/07/31 05:52:17;;;;;;;13.32;9.00;;;19.90;80.70;;;;;;5060327;28;20032;-74
2022/07/31 05:54:44;;;;;;;15.50;8.20;;;19.90;80.60;;;;;;5071169;28;20038;-75
2022/07/31 05:57:10;;;;;;;15.18;8.50;;;20.00;80.40;;;;;;5068368;28;20028;-75
2022/07/31 05:59:35;;;;;;;12.13;7.55;;;20.00;80.30;;;;;;5063248;28;20059;-77
2022/07/31 06:02:02;;;;;;;13.85;8.48;;;20.00;80.30;;;;;;5070469;28;20202;-75
2022/07/31 06:04:27;;;;;;;13.85;7.88;;;19.90;80.40;;;;;;5062325;28;20128;-76
2022/07/31 06:06:53;;;;;;;11.80;7.88;;;19.90;80.50;;;;;;5061911;28;20116;-77
2022/07/31 06:09:19;;;;;;;15.10;8.25;;;19.90;80.50;;;;;;5061264;28;20093;-75
2022/07/31 06:11:44;;;;;;;13.88;8.20;;;19.90;80.60;;;;;;5065246;28;20036;-76
2022/07/31 06:14:10;;;;;;;13.68;8.13;;;20.10;80.20;;;;;;5063967;28;20037;-76
2022/07/31 06:16:35;;;;;;;14.48;7.82;;;20.40;79.60;;;;;;5063214;28;20515;-76
2022/07/31 06:19:01;;;;;;;12.35;7.90;;;20.60;78.70;;;;;;5064236;28;20044;-79
2022/07/31 06:21:27;;;;;;;12.35;7.38;;;20.70;78.20;;;;;;5065509;28;20071;-77
2022/07/31 06:23:52;;;;;;;9.35;6.60;;;21.00;78.00;;;;;;5068625;28;20110;-76
2022/07/31 06:26:18;;;;;;;14.73;7.50;;;21.20;77.40;;;;;;5062135;28;20040;-77
2022/07/31 06:28:43;;;;;;;13.02;7.10;;;21.60;75.80;;;;;;5062987;28;20036;-76
2022/07/31 06:31:16;;;;;;;11.48;7.13;;;21.80;75.20;;;;;;5062152;28;20052;-75
2022/07/31 06:33:41;;;;;;;11.05;6.90;;;21.80;74.20;;;;;;5063457;28;20040;-77
2022/07/31 06:36:07;;;;;;;11.55;7.10;;;21.80;74.50;;;;;;5062668;28;20045;-76
2022/07/31 06:38:33;;;;;;;12.35;6.32;;;21.80;74.30;;;;;;5062714;28;20569;-76
2022/07/31 06:40:58;;;;;;;11.68;5.97;;;21.90;74.60;;;;;;5063061;28;20044;-77
2022/07/31 06:43:24;;;;;;;10.30;6.38;;;22.10;73.60;;;;;;5060751;28;20051;-76
2022/07/31 06:45:50;;;;;;;10.45;7.00;;;22.20;72.90;;;;;;5063501;28;20401;-76
2022/07/31 06:48:15;;;;;;;12.30;6.72;;;22.10;73.10;;;;;;5058688;28;20045;-79
2022/07/31 06:50:41;;;;;;;12.57;6.78;;;21.90;73.50;;;;;;5064529;28;20488;-76
2022/07/31 06:53:06;;;;;;;10.70;6.45;;;21.80;74.10;;;;;;5063723;28;20075;-77
2022/07/31 06:55:32;;;;;;;10.70;6.65;;;22.00;73.60;;;;;;5064496;28;20040;-77
2022/07/31 06:57:58;;;;;;;10.10;6.07;;;22.20;72.90;;;;;;5062807;28;20044;-76
2022/07/31 07:00:23;;;;;;;9.93;6.72;;;22.60;72.40;;;;;;5064028;28;20111;-77
2022/07/31 07:02:49;;;;;;;12.18;7.07;;;22.70;71.40;;;;;;5058043;28;20056;-78
2022/07/31 07:05:15;;;;;;;11.00;6.55;;;22.60;71.30;;;;;;5059480;28;20159;-78
2022/07/31 07:07:40;;;;;;;12.43;6.40;;;22.70;70.80;;;;;;5062921;28;20036;-77
2022/07/31 07:10:06;;;;;;;10.98;6.90;;;22.80;70.70;;;;;;5060707;28;20052;-78
2022/07/31 07:12:32;;;;;;;9.50;6.32;;;22.90;70.40;;;;;;5061599;28;20052;-77
2022/07/31 07:14:58;;;;;;;13.48;6.50;;;23.10;70.30;;;;;;5060336;28;20090;-76
2022/07/31 07:17:23;;;;;;;10.15;6.75;;;23.10;70.00;;;;;;5058636;28;20511;-77
2022/07/31 07:19:49;;;;;;;10.35;6.18;;;23.20;69.60;;;;;;5031984;28;20097;-77
2022/07/31 07:22:15;;;;;;;10.95;6.60;;;23.50;69.60;;;;;;5067174;28;20546;-80
2022/07/31 07:24:40;;;;;;;10.85;7.00;;;23.80;68.50;;;;;;5059225;28;20495;-77
2022/07/31 07:27:06;;;;;;;12.52;6.57;;;23.70;67.40;;;;;;5060683;28;20044;-76
2022/07/31 07:29:31;;;;;;;12.98;7.30;;;23.40;69.10;;;;;;5061080;28;20049;-77
2022/07/31 07:31:58;;;;;;;10.20;6.78;;;23.10;69.50;;;;;;5060122;28;20039;-76
2022/07/31 07:34:24;;;;;;;12.77;7.90;;;23.10;69.60;;;;;;5057425;28;20036;-77
2022/07/31 07:36:50;;;;;;;10.95;6.78;;;23.10;70.20;;;;;;5059542;28;20186;-77
2022/07/31 07:39:15;;;;;;;11.57;7.57;;;23.30;69.80;;;;;;5063288;28;20583;-77
2022/07/31 07:41:41;;;;;;;13.25;7.28;;;23.70;68.40;;;;;;5060604;28;20040;-78
2022/07/31 07:44:07;;;;;;;9.70;6.70;;;24.00;67.80;;;;;;5061770;28;20045;-77
2022/07/31 07:46:33;;;;;;;9.65;6.95;;;24.20;66.70;;;;;;5059387;28;20464;-77
2022/07/31 07:49:00;;;;;;;12.07;7.80;;;24.40;66.80;;;;;;5063003;28;20039;-76
2022/07/31 07:51:25;;;;;;;12.20;7.80;;;24.10;66.40;;;;;;5058962;28;20040;-78
2022/07/31 07:53:51;;;;;;;9.85;7.00;;;23.80;67.60;;;;;;5059844;28;20094;-76
2022/07/31 07:56:17;;;;;;;11.32;6.85;;;24.10;67.40;;;;;;5059958;28;20040;-76
2022/07/31 07:58:43;;;;;;;11.50;7.28;;;24.40;65.90;;;;;;5076231;28;20133;-76
2022/07/31 08:01:09;;;;;;;11.93;6.82;;;24.30;66.00;;;;;;5059998;28;20032;-77
2022/07/31 08:03:34;;;;;;;9.57;6.15;;;24.50;65.90;;;;;;5061362;28;20051;-77
2022/07/31 08:06:00;;;;;;;10.80;6.75;;;24.50;65.30;;;;;;5060009;28;20060;-76
2022/07/31 08:08:26;;;;;;;12.23;6.95;;;24.50;65.20;;;;;;5060724;28;20665;-77
2022/07/31 08:10:52;;;;;;;9.68;5.65;;;24.70;64.50;;;;;;5060435;28;20135;-77
2022/07/31 08:13:17;;;;;;;10.40;6.63;;;24.60;64.10;;;;;;5059367;28;20033;-77
2022/07/31 08:15:43;;;;;;;11.48;6.55;;;24.60;64.50;;;;;;5059005;28;20427;-76
2022/07/31 08:18:09;;;;;;;9.38;5.80;;;24.50;64.10;;;;;;5059260;28;20036;-75
2022/07/31 08:20:37;;;;;;;8.85;6.00;;;24.50;64.20;;;;;;5057053;28;20068;-78
2022/07/31 08:23:02;;;;;;;11.00;6.15;;;24.50;63.90;;;;;;5055680;28;20495;-75
2022/07/31 08:25:28;;;;;;;8.95;6.05;;;24.50;64.10;;;;;;5055903;28;20039;-76
2022/07/31 08:27:53;;;;;;;12.38;5.90;;;24.30;65.10;;;;;;5056844;28;20483;-75
2022/07/31 08:30:19;;;;;;;9.05;5.50;;;24.30;65.10;;;;;;5057767;28;20036;-78
2022/07/31 08:32:45;;;;;;;10.85;5.38;;;24.40;64.70;;;;;;5058101;28;20543;-76
2022/07/31 08:35:11;;;;;;;10.13;5.50;;;24.50;64.40;;;;;;5056240;28;20028;-77
2022/07/31 08:37:36;;;;;;;9.60;5.78;;;24.70;64.00;;;;;;5058113;28;20040;-76
2022/07/31 08:40:03;;;;;;;11.48;5.60;;;24.80;63.30;;;;;;5060617;28;20032;-75
2022/07/31 08:42:28;;;;;;;8.95;5.20;;;24.70;63.00;;;;;;5060380;28;20047;-78
2022/07/31 08:44:54;;;;;;;8.98;4.72;;;24.60;63.30;;;;;;5061974;28;20033;-76
2022/07/31 08:47:22;;;;;;;8.48;5.35;;;24.20;65.30;;;;;;5057457;28;20476;-79
2022/07/31 08:49:48;;;;;;;7.93;4.57;;;24.10;65.00;;;;;;5059730;28;20563;-76
2022/07/31 08:52:25;;;;;;;8.40;5.15;;;24.10;65.60;;;;;;5059935;28;20032;-75
2022/07/31 08:54:52;;;;;;;9.57;4.80;;;24.10;65.90;;;;;;5060341;28;20036;-77
2022/07/31 08:57:19;;;;;;;7.88;4.15;;;24.10;66.00;;;;;;5058636;28;20032;-80
2022/07/31 08:59:45;;;;;;;7.53;4.10;;;24.00;66.30;;;;;;5059777;28;20036;-75
2022/07/31 09:02:12;;;;;;;9.38;4.03;;;24.10;66.70;;;;;;5063219;28;20028;-78
2022/07/31 09:04:38;;;;;;;8.02;4.45;;;24.10;66.20;;;;;;5076150;28;20036;-75
2022/07/31 09:07:04;;;;;;;10.32;4.63;;;24.00;66.60;;;;;;5058593;28;20149;-76
2022/07/31 09:09:30;;;;;;;7.50;4.70;;;23.80;67.00;;;;;;5057979;28;20522;-75
2022/07/31 09:11:56;;;;;;;10.70;4.68;;;23.80;67.30;;;;;;5062756;28;20399;-75
2022/07/31 09:14:27;;;;;;;8.90;4.85;;;23.80;67.60;;;;;;5063653;28;20068;-75
2022/07/31 09:16:54;;;;;;;10.05;4.55;;;23.80;67.60;;;;;;5059979;28;20037;-76
2022/07/31 09:19:21;;;;;;;7.32;4.03;;;24.00;67.40;;;;;;5058422;28;20024;-76
2022/07/31 09:21:46;;;;;;;7.78;3.50;;;23.80;67.70;;;;;;5064061;28;20051;-75
2022/07/31 09:24:26;;;;;;;7.10;3.38;;;23.60;68.50;;;;;;5061362;28;20438;-75
2022/07/31 09:26:59;;;;;;;8.90;4.00;;;23.70;68.60;;;;;;5061538;28;20032;-74
2022/07/31 09:29:41;;;;;;;8.50;3.85;;;23.90;68.00;;;;;;5061009;28;20060;-75
2022/07/31 09:32:11;;;;;;;7.22;3.05;;;24.00;68.10;;;;;;5060433;28;20048;-76
2022/07/31 09:34:39;;;;;;;7.63;3.17;;;23.50;69.40;;;;;;5061236;28;20037;-75
2022/07/31 09:37:15;;;;;;;7.35;3.25;;;23.20;70.50;;;;;;5060678;28;20032;-76
2022/07/31 09:39:47;;;;;;;7.18;3.38;;;23.40;69.90;;;;;;5071476;28;20111;-76
2022/07/31 09:42:13;;;;;;;6.78;3.00;;;23.60;69.40;;;;;;5058879;28;20029;-75
2022/07/31 09:44:41;;;;;;;7.32;3.65;;;24.10;68.90;;;;;;5064630;28;20044;-75
2022/07/31 09:47:17;;;;;;;7.10;3.47;;;24.60;66.70;;;;;;5062412;28;20475;-73
2022/07/31 09:49:43;;;;;;;8.23;3.35;;;24.70;65.50;;;;;;5064588;28;20053;-75
2022/07/31 09:52:18;;;;;;;7.70;3.03;;;24.80;66.10;;;;;;5063696;28;20447;-75
2022/07/31 09:54:44;;;;;;;6.10;2.70;;;24.50;66.00;;;;;;5066488;28;20078;-74
2022/07/31 09:57:14;;;;;;;5.60;2.72;;;24.30;67.20;;;;;;5064557;28;20037;-74
2022/07/31 09:59:40;;;;;;;5.97;2.95;;;24.10;67.60;;;;;;5064014;28;20438;-79
2022/07/31 10:02:08;;;;;;;10.82;3.85;;;24.10;67.50;;;;;;5063001;28;20157;-75
2022/07/31 10:04:37;;;;;;;7.90;3.13;;;24.20;67.90;;;;;;5062180;28;20103;-75
2022/07/31 10:07:04;;;;;;;5.55;2.92;;;24.20;67.60;;;;;;5063654;28;20075;-75
2022/07/31 10:09:31;;;;;;;6.05;2.85;;;24.20;67.30;;;;;;5070425;28;20044;-74
2022/07/31 10:11:59;;;;;;;4.75;2.70;;;24.30;67.20;;;;;;5066084;28;20056;-73
2022/07/31 10:14:29;;;;;;;5.85;2.58;;;24.50;66.70;;;;;;5067997;28;20471;-74
2022/07/31 10:16:58;;;;;;;5.15;2.63;;;24.50;66.40;;;;;;5065795;28;20087;-72
2022/07/31 10:19:26;;;;;;;7.35;2.70;;;24.50;66.70;;;;;;5063356;28;20029;-74
2022/07/31 10:22:00;;;;;;;5.70;2.90;;;24.70;66.40;;;;;;5065725;28;20035;-76
2022/07/31 10:24:27;;;;;;;6.28;2.65;;;24.90;65.30;;;;;;5063094;28;20028;-74
2022/07/31 10:26:57;;;;;;;6.82;2.47;;;24.80;65.90;;;;;;5061780;28;20622;-76
2022/07/31 10:29:23;;;;;;;5.80;2.50;;;24.70;66.00;;;;;;5062750;28;20475;-73
2022/07/31 10:31:49;;;;;;;4.32;2.20;;;24.70;66.30;;;;;;5063360;28;20060;-74
2022/07/31 10:34:15;;;;;;;5.75;2.55;;;24.80;65.90;;;;;;5067595;28;20581;-75
2022/07/31 10:36:44;;;;;;;6.07;2.67;;;24.70;66.90;;;;;;5061325;28;20032;-73
2022/07/31 10:39:16;;;;;;;4.88;2.15;;;24.70;66.50;;;;;;5062045;28;20040;-74
2022/07/31 10:41:59;;;;;;;6.30;2.33;;;24.90;66.20;;;;;;5060795;28;20050;-75
2022/07/31 10:44:39;;;;;;;4.85;2.20;;;25.20;65.70;;;;;;5064729;28;20460;-72
2022/07/31 10:47:12;;;;;;;4.10;1.90;;;25.10;65.10;;;;;;5063095;28;20037;-73
2022/07/31 10:49:43;;;;;;;3.50;1.80;;;25.20;64.90;;;;;;5061964;28;20045;-74
2022/07/31 10:52:09;;;;;;;4.65;1.92;;;25.20;65.50;;;;;;5061784;28;20036;-75
2022/07/31 10:54:45;;;;;;;4.20;1.80;;;25.40;64.60;;;;;;5062361;28;20036;-73
2022/07/31 10:57:22;;;;;;;3.78;1.50;;;25.60;64.60;;;;;;5059588;28;20043;-73
2022/07/31 10:59:48;;;;;;;3.22;1.88;;;26.10;63.00;;;;;;5055229;28;20045;-76
2022/07/31 11:02:30;;;;;;;3.33;1.67;;;26.50;62.10;;;;;;5061980;28;20063;-73
2022/07/31 11:05:13;;;;;;;4.35;1.77;;;26.40;60.60;;;;;;5049934;28;20075;-73
2022/07/31 11:07:44;;;;;;;2.50;1.50;;;26.40;60.90;;;;;;5057692;28;20064;-73
2022/07/31 11:10:16;;;;;;;4.13;1.70;;;26.50;60.00;;;;;;5058608;28;20049;-74
2022/07/31 11:12:42;;;;;;;5.30;1.85;;;26.50;59.90;;;;;;5060475;28;20032;-72
2022/07/31 11:15:23;;;;;;;5.68;1.83;;;26.60;59.30;;;;;;5060334;28;20037;-74
2022/07/31 11:17:49;;;;;;;4.72;1.73;;;26.80;59.00;;;;;;5058277;28;20040;-73
2022/07/31 11:20:26;;;;;;;4.82;1.73;;;27.20;58.20;;;;;;5056888;28;20032;-73
2022/07/31 11:22:56;;;;;;;4.82;1.83;;;27.30;58.10;;;;;;5061668;28;20035;-73
2022/07/31 11:25:22;;;;;;;4.78;1.70;;;27.10;58.70;;;;;;5058736;28;20633;-74
2022/07/31 11:27:48;;;;;;;4.47;1.90;;;27.00;58.40;;;;;;5062172;28;20155;-73
2022/07/31 11:30:14;;;;;;;4.10;1.70;;;26.80;58.90;;;;;;5066077;28;20155;-74
2022/07/31 11:32:50;;;;;;;6.15;1.98;;;26.80;59.10;;;;;;5060026;28;20072;-73
2022/07/31 11:35:35;;;;;;;3.78;1.60;;;26.60;59.50;;;;;;5058373;28;20033;-73
2022/07/31 11:38:01;;;;;;;4.93;1.98;;;26.80;58.60;;;;;;5058646;28;20161;-75
2022/07/31 11:40:27;;;;;;;5.00;1.85;;;26.80;59.00;;;;;;5060927;28;20097;-74
2022/07/31 11:42:52;;;;;;;4.75;1.95;;;26.80;59.00;;;;;;5060848;28;20040;-76
2022/07/31 11:45:18;;;;;;;6.65;2.00;;;26.90;58.50;;;;;;5060277;28;20028;-73
2022/07/31 11:47:46;;;;;;;6.20;1.98;;;26.80;58.80;;;;;;5062389;28;20122;-73
2022/07/31 11:50:13;;;;;;;7.22;2.08;;;27.00;58.20;;;;;;5058895;28;20036;-74
2022/07/31 11:52:42;;;;;;;4.60;1.60;;;26.70;58.60;;;;;;5054477;28;20133;-74
2022/07/31 11:55:13;;;;;;;4.85;1.92;;;26.10;60.60;;;;;;5061956;28;20073;-73
2022/07/31 11:57:40;;;;;;;4.93;1.88;;;26.30;60.00;;;;;;5061676;28;20059;-76
2022/07/31 12:00:11;;;;;;;5.10;1.60;;;26.40;59.50;;;;;;5062904;28;20039;-74
2022/07/31 12:02:46;;;;;;;5.53;1.80;;;26.60;59.80;;;;;;5061746;28;20032;-73
2022/07/31 12:05:13;;;;;;;4.15;1.63;;;26.60;59.90;;;;;;5061286;28;20044;-73
2022/07/31 12:07:42;;;;;;;7.50;2.15;;;26.70;59.00;;;;;;5061372;28;20039;-76
2022/07/31 12:10:12;;;;;;;5.10;1.83;;;26.50;59.20;;;;;;5062065;28;20053;-73
2022/07/31 12:12:39;;;;;;;5.05;2.00;;;26.60;59.10;;;;;;5051840;28;20055;-75
2022/07/31 12:15:15;;;;;;;4.55;1.92;;;26.50;59.30;;;;;;5060450;28;20052;-73
2022/07/31 12:17:41;;;;;;;4.70;1.80;;;26.20;60.00;;;;;;5060159;28;20056;-73
2022/07/31 12:20:08;;;;;;;3.80;2.08;;;26.10;60.40;;;;;;5061877;28;20067;-72
2022/07/31 12:22:35;;;;;;;5.22;2.50;;;25.90;60.90;;;;;;5054779;28;20072;-72
2022/07/31 12:25:01;;;;;;;5.03;1.98;;;26.00;61.60;;;;;;5059037;28;20076;-74
2022/07/31 12:27:26;;;;;;;5.40;2.08;;;26.30;60.70;;;;;;5057394;28;20055;-75
2022/07/31 12:29:52;;;;;;;5.80;2.30;;;26.10;60.70;;;;;;5065461;28;20054;-73
2022/07/31 12:32:25;;;;;;;5.63;2.25;;;26.20;60.40;;;;;;5062949;28;20039;-74
2022/07/31 12:35:01;;;;;;;6.20;2.40;;;26.10;61.30;;;;;;5062563;28;20115;-74
2022/07/31 12:37:27;;;;;;;6.65;2.45;;;26.20;60.90;;;;;;5079574;28;20070;-74
2022/07/31 12:39:55;;;;;;;4.55;2.03;;;26.50;59.70;;;;;;5062451;28;20040;-75
2022/07/31 12:42:28;;;;;;;6.10;2.10;;;26.50;60.20;;;;;;5057616;28;20083;-75
2022/07/31 12:44:56;;;;;;;6.30;2.10;;;26.60;59.20;;;;;;5065521;28;20059;-75
2022/07/31 12:47:24;;;;;;;6.28;2.10;;;26.30;59.30;;;;;;5069724;28;20115;-73